createdAt,value
2018-02-17T00:00:04.663Z,96038.34
2018-02-17T00:02:32.600Z,96032.97
2018-02-17T00:05:00.597Z,96039.73
2018-02-17T00:07:28.547Z,96049.42
2018-02-17T00:09:56.843Z,96042.44
2018-02-17T00:12:24.893Z,96050.50
2018-02-17T00:14:52.854Z,96044.83
2018-02-17T00:17:20.775Z,96067.17
2018-02-17T00:19:48.733Z,96062.38
2018-02-17T00:22:16.760Z,96065.07
2018-02-17T00:24:44.770Z,96063.03
2018-02-17T00:27:12.760Z,96063.64
2018-02-17T00:29:40.704Z,96064.23
2018-02-17T00:32:08.651Z,96072.30
2018-02-17T00:34:36.594Z,96068.20
2018-02-17T00:37:04.586Z,96069.66
2018-02-17T00:39:32.535Z,96066.41
2018-02-17T00:42:00.472Z,96067.50
2018-02-17T00:44:28.421Z,96070.59
2018-02-17T00:46:56.387Z,96074.09
2018-02-17T00:49:24.353Z,96073.20
2018-02-17T00:51:52.301Z,96073.41
2018-02-17T00:54:20.252Z,96078.91
2018-02-17T00:56:48.214Z,96074.61
2018-02-17T00:59:16.126Z,96072.42
2018-02-17T01:01:43.992Z,96068.69
2018-02-17T01:04:11.965Z,96073.44
2018-02-17T01:06:39.919Z,96075.16
2018-02-17T01:09:07.889Z,96075.50
2018-02-17T01:11:36.607Z,96075.84
2018-02-17T01:14:04.583Z,96082.59
2018-02-17T01:16:32.645Z,96081.17
2018-02-17T01:19:00.616Z,96078.45
2018-02-17T01:21:28.555Z,96083.37
2018-02-17T01:23:56.682Z,96081.66
2018-02-17T01:26:24.630Z,96082.20
2018-02-17T01:28:52.555Z,96076.97
2018-02-17T01:31:20.431Z,96073.16
2018-02-17T01:33:48.447Z,96072.18
2018-02-17T01:36:16.391Z,96075.72
2018-02-17T01:38:44.416Z,96072.79
2018-02-17T01:41:12.350Z,96080.11
2018-02-17T01:43:40.283Z,96081.33
2018-02-17T01:46:08.256Z,96079.80
2018-02-17T01:48:36.203Z,96072.67
2018-02-17T01:51:04.207Z,96071.86
2018-02-17T01:53:32.233Z,96079.00
2018-02-17T01:56:00.201Z,96076.50
2018-02-17T01:58:28.177Z,96078.83
2018-02-17T02:00:56.110Z,96072.42
2018-02-17T02:03:24.055Z,96070.70
2018-02-17T02:05:51.974Z,96071.88
2018-02-17T02:08:19.913Z,96077.34
2018-02-17T02:10:47.887Z,96066.95
2018-02-17T02:13:16.239Z,96067.19
2018-02-17T02:15:44.167Z,96074.00
2018-02-17T02:18:12.100Z,96074.20
2018-02-17T02:20:40.060Z,96085.14
2018-02-17T02:23:08.031Z,96086.55
2018-02-17T02:25:36.059Z,96078.61
2018-02-17T02:28:04.005Z,96076.73
2018-02-17T02:30:32.003Z,96080.84
2018-02-17T02:32:59.943Z,96075.06
2018-02-17T02:35:27.903Z,96068.20
2018-02-17T02:37:55.924Z,96070.62
2018-02-17T02:40:24.002Z,96075.68
2018-02-17T02:42:51.906Z,96072.82
2018-02-17T02:45:21.185Z,96078.65
2018-02-17T02:47:49.158Z,96077.03
2018-02-17T02:50:17.174Z,96072.43
2018-02-17T02:52:45.116Z,96073.34
2018-02-17T02:55:13.074Z,96076.80
2018-02-17T02:57:41.015Z,96076.82
2018-02-17T03:00:08.968Z,96074.42
2018-02-17T03:02:36.983Z,96067.99
2018-02-17T03:05:04.948Z,96068.89
2018-02-17T03:07:32.902Z,96065.30
2018-02-17T03:10:00.886Z,96069.79
2018-02-17T03:12:28.778Z,96067.53
2018-02-17T03:14:57.225Z,96068.27
2018-02-17T03:17:25.199Z,96063.79
2018-02-17T03:19:53.203Z,96062.49
2018-02-17T03:22:21.096Z,96057.78
2018-02-17T03:24:48.983Z,96064.92
2018-02-17T03:27:16.902Z,96068.13
2018-02-17T03:29:44.904Z,96064.83
2018-02-17T03:32:12.886Z,96062.52
2018-02-17T03:34:40.866Z,96072.00
2018-02-17T03:37:08.803Z,96064.72
2018-02-17T03:39:36.708Z,96077.20
2018-02-17T03:42:04.682Z,96072.92
2018-02-17T03:44:32.655Z,96076.06
2018-02-17T03:47:00.565Z,96069.72
2018-02-17T03:49:28.486Z,96070.94
2018-02-17T03:51:56.430Z,96075.99
2018-02-17T03:54:24.422Z,96077.59
2018-02-17T03:56:52.325Z,96072.05
2018-02-17T03:59:20.290Z,96066.37
2018-02-17T04:01:48.233Z,96066.95
2018-02-17T04:04:16.223Z,96068.15
2018-02-17T04:06:44.214Z,96073.59
2018-02-17T04:09:12.124Z,96073.36
2018-02-17T04:11:40.098Z,96075.25
2018-02-17T04:14:08.019Z,96076.88
2018-02-17T04:16:36.398Z,96079.52
2018-02-17T04:19:04.350Z,96075.37
2018-02-17T04:21:32.288Z,96074.67
2018-02-17T04:24:00.310Z,96079.95
2018-02-17T04:26:28.290Z,96085.88
2018-02-17T04:28:56.250Z,96080.48
2018-02-17T04:31:24.153Z,95979.05
2018-02-17T04:33:52.116Z,96071.63
2018-02-17T04:36:20.085Z,96074.02
2018-02-17T04:38:48.049Z,96079.16
2018-02-17T04:44:45.375Z,96075.08
2018-02-17T04:50:25.375Z,96071.87
2018-02-17T04:56:14.083Z,96073.51
2018-02-17T04:58:42.153Z,96070.92
2018-02-17T05:01:12.002Z,96072.19
2018-02-17T05:03:58.933Z,96068.81
2018-02-17T05:06:42.035Z,96066.83
2018-02-17T05:09:10.335Z,96073.95
2018-02-17T05:11:38.705Z,96078.77
2018-02-17T05:17:18.400Z,96081.83
2018-02-17T05:19:51.938Z,96088.88
2018-02-17T05:22:34.152Z,96095.53
2018-02-17T05:25:07.350Z,96093.39
2018-02-17T05:27:38.490Z,96100.11
2018-02-17T05:30:09.110Z,96104.02
2018-02-17T05:35:46.268Z,96118.08
2018-02-17T05:38:15.046Z,96128.44
2018-02-17T05:40:43.817Z,96106.86
2018-02-17T05:43:12.918Z,96127.55
2018-02-17T05:45:45.683Z,96125.56
2018-02-17T05:48:13.755Z,96112.13
2018-02-17T05:50:41.756Z,96110.08
2018-02-17T05:53:09.804Z,96110.98
2018-02-17T05:55:37.844Z,96108.80
2018-02-17T05:58:06.340Z,96105.78
2018-02-17T06:00:34.827Z,96107.67
2018-02-17T06:03:03.307Z,96110.12
2018-02-17T06:05:31.575Z,96094.34
2018-02-17T06:07:59.962Z,96106.11
2018-02-17T06:10:28.268Z,96103.99
2018-02-17T06:12:56.705Z,96106.48
2018-02-17T06:15:24.618Z,96111.08
2018-02-17T06:17:53.257Z,96034.91
2018-02-17T06:20:21.273Z,96113.55
2018-02-17T06:22:49.232Z,96111.56
2018-02-17T06:25:17.266Z,96116.11
2018-02-17T06:27:45.185Z,96109.70
2018-02-17T06:30:13.191Z,96112.08
2018-02-17T06:32:41.148Z,96113.25
2018-02-17T06:35:09.102Z,96106.87
2018-02-17T06:37:37.131Z,96108.64
2018-02-17T06:40:05.106Z,96112.66
2018-02-17T06:42:33.355Z,96111.36
2018-02-17T06:45:01.916Z,96113.07
2018-02-17T06:47:30.119Z,96112.19
2018-02-17T06:49:58.089Z,96113.42
2018-02-17T06:52:26.250Z,96106.94
2018-02-17T06:54:54.625Z,96114.84
2018-02-17T06:57:23.109Z,96126.00
2018-02-17T06:59:51.315Z,96125.33
2018-02-17T07:02:19.688Z,96127.58
2018-02-17T07:04:47.739Z,96132.69
2018-02-17T07:07:15.661Z,96128.20
2018-02-17T07:09:44.877Z,96122.29
2018-02-17T07:12:12.918Z,96111.91
2018-02-17T07:14:40.937Z,96100.83
2018-02-17T07:17:08.987Z,96098.34
2018-02-17T07:19:37.279Z,96089.92
2018-02-17T07:22:05.491Z,96086.96
2018-02-17T07:24:33.643Z,96077.31
2018-02-17T07:27:01.948Z,96070.58
2018-02-17T07:29:30.121Z,96061.77
2018-02-17T07:31:58.497Z,96070.14
2018-02-17T07:34:27.033Z,96066.17
2018-02-17T07:36:56.192Z,96074.06
2018-02-17T07:39:25.140Z,96069.05
2018-02-17T07:41:53.511Z,96073.66
2018-02-17T07:44:21.880Z,96072.31
2018-02-17T07:46:50.025Z,96069.71
2018-02-17T07:49:18.526Z,96067.73
2018-02-17T07:51:47.531Z,96064.64
2018-02-17T07:54:15.818Z,96063.54
2018-02-17T07:56:44.694Z,96058.80
2018-02-17T07:59:12.935Z,96040.63
2018-02-17T08:01:41.398Z,96054.19
2018-02-17T08:04:10.239Z,96050.59
2018-02-17T08:06:38.286Z,96050.08
2018-02-17T08:09:06.434Z,96050.12
2018-02-17T08:11:34.759Z,96051.59
2018-02-17T08:14:03.136Z,96054.39
2018-02-17T08:16:31.406Z,96053.14
2018-02-17T08:18:59.680Z,96051.56
2018-02-17T08:21:27.875Z,96049.27
2018-02-17T08:23:56.257Z,96045.53
2018-02-17T08:26:24.326Z,96044.48
2018-02-17T08:28:52.366Z,96043.14
2018-02-17T08:31:20.334Z,96034.30
2018-02-17T08:33:48.262Z,96027.00
2018-02-17T08:36:17.293Z,96025.09
2018-02-17T08:38:45.230Z,96024.84
2018-02-17T08:41:13.201Z,96017.64
2018-02-17T08:43:41.165Z,96022.86
2018-02-17T08:46:09.182Z,96016.52
2018-02-17T08:48:37.115Z,96019.09
2018-02-17T08:51:05.093Z,95932.25
2018-02-17T08:53:33.168Z,96007.48
2018-02-17T08:56:01.204Z,96001.66
2018-02-17T08:58:29.738Z,95997.18
2018-02-17T09:00:58.063Z,95998.24
2018-02-17T09:03:26.066Z,96001.61
2018-02-17T09:05:54.461Z,95999.50
2018-02-17T09:08:22.519Z,95996.73
2018-02-17T09:10:50.588Z,95990.59
2018-02-17T09:13:18.567Z,95983.78
2018-02-17T09:15:46.551Z,95985.65
2018-02-17T09:18:15.124Z,95977.62
2018-02-17T09:20:43.113Z,95971.56
2018-02-17T09:23:11.085Z,95973.22
2018-02-17T09:25:39.082Z,95978.45
2018-02-17T09:28:07.123Z,95970.74
2018-02-17T09:30:35.207Z,95960.63
2018-02-17T09:33:03.243Z,95960.38
2018-02-17T09:35:31.864Z,95957.35
2018-02-17T09:37:59.901Z,95954.05
2018-02-17T09:40:27.896Z,95950.58
2018-02-17T09:42:55.869Z,95945.99
2018-02-17T09:45:23.868Z,95945.85
2018-02-17T09:47:51.831Z,95944.89
2018-02-17T09:50:19.752Z,95938.41
2018-02-17T09:52:47.811Z,95927.66
2018-02-17T09:55:15.765Z,95935.82
2018-02-17T09:57:43.689Z,95933.89
2018-02-17T10:00:11.691Z,95922.41
2018-02-17T10:02:39.654Z,95926.19
2018-02-17T10:05:07.571Z,95922.38
2018-02-17T10:07:36.040Z,95910.23
2018-02-17T10:10:04.041Z,95917.59
2018-02-17T10:12:32.012Z,95903.07
2018-02-17T10:15:00.015Z,95892.49
2018-02-17T10:17:27.978Z,95901.97
2018-02-17T10:19:55.959Z,95895.23
2018-02-17T10:22:23.941Z,95898.14
2018-02-17T10:24:51.919Z,95889.50
2018-02-17T10:27:19.859Z,95896.48
2018-02-17T10:29:47.886Z,95884.41
2018-02-17T10:32:15.818Z,95869.70
2018-02-17T10:34:43.869Z,95873.22
2018-02-17T10:37:11.803Z,95865.01
2018-02-17T10:39:39.746Z,95863.37
2018-02-17T10:42:07.734Z,95854.02
2018-02-17T10:44:35.680Z,95845.63
2018-02-17T10:47:03.611Z,95842.75
2018-02-17T10:49:31.506Z,95836.80
2018-02-17T10:51:59.461Z,95837.31
2018-02-17T10:54:27.417Z,95835.98
2018-02-17T10:56:55.338Z,95830.71
2018-02-17T10:59:23.299Z,95827.52
2018-02-17T11:01:51.281Z,95822.70
2018-02-17T11:04:19.246Z,95823.27
2018-02-17T11:06:47.218Z,95821.82
2018-02-17T11:09:15.458Z,95818.20
2018-02-17T11:11:43.414Z,95816.50
2018-02-17T11:14:11.362Z,95809.55
2018-02-17T11:16:39.352Z,95715.45
2018-02-17T11:19:07.397Z,95806.06
2018-02-17T11:21:35.430Z,95804.95
2018-02-17T11:24:03.330Z,95797.25
2018-02-17T11:26:31.325Z,95797.72
2018-02-17T11:28:59.275Z,95788.80
2018-02-17T11:31:27.285Z,95780.38
2018-02-17T11:33:55.235Z,95776.20
2018-02-17T11:36:23.131Z,95779.37
2018-02-17T11:38:51.105Z,95777.53
2018-02-17T11:41:19.191Z,95771.36
2018-02-17T11:43:47.348Z,95765.33
2018-02-17T11:46:15.514Z,95759.11
2018-02-17T11:48:43.646Z,95754.95
2018-02-17T11:51:11.840Z,95750.59
2018-02-17T11:53:39.976Z,95749.53
2018-02-17T11:56:08.069Z,95749.38
2018-02-17T11:58:36.230Z,95740.10
2018-02-17T12:01:04.395Z,95731.47
2018-02-17T12:03:32.534Z,95737.38
2018-02-17T12:06:00.713Z,95733.39
2018-02-17T12:08:28.948Z,95731.14
2018-02-17T12:10:57.564Z,95727.02
2018-02-17T12:13:25.754Z,95719.23
2018-02-17T12:15:53.833Z,95716.34
2018-02-17T12:18:22.153Z,95722.80
2018-02-17T12:20:50.275Z,95719.56
2018-02-17T12:23:18.422Z,95710.22
2018-02-17T12:25:46.627Z,95712.44
2018-02-17T12:28:14.829Z,95709.53
2018-02-17T12:30:43.017Z,95703.17
2018-02-17T12:33:11.196Z,95697.05
2018-02-17T12:35:39.464Z,95698.39
2018-02-17T12:38:07.625Z,95696.17
2018-02-17T12:40:35.645Z,95695.84
2018-02-17T12:43:03.603Z,95692.21
2018-02-17T12:45:31.541Z,95692.58
2018-02-17T12:47:59.438Z,95691.38
2018-02-17T12:50:27.418Z,95696.70
2018-02-17T12:52:55.396Z,95691.77
2018-02-17T12:55:23.369Z,95688.20
2018-02-17T12:57:51.283Z,95687.72
2018-02-17T13:00:19.291Z,95683.94
2018-02-17T13:02:47.299Z,95683.82
2018-02-17T13:05:15.324Z,95681.77
2018-02-17T13:07:43.386Z,95682.05
2018-02-17T13:10:11.377Z,95675.72
2018-02-17T13:12:39.903Z,95675.03
2018-02-17T13:15:07.883Z,95678.34
2018-02-17T13:17:35.810Z,95675.21
2018-02-17T13:20:03.782Z,95675.47
2018-02-17T13:22:31.706Z,95675.42
2018-02-17T13:24:59.695Z,95663.66
2018-02-17T13:27:27.634Z,95657.08
2018-02-17T13:29:55.639Z,95666.94
2018-02-17T13:32:23.631Z,95661.43
2018-02-17T13:34:51.615Z,95660.67
2018-02-17T13:37:19.627Z,95658.16
2018-02-17T13:39:47.560Z,95654.75
2018-02-17T13:42:15.527Z,95649.08
2018-02-17T13:44:43.475Z,95650.03
2018-02-17T13:47:11.435Z,95653.46
2018-02-17T13:49:39.344Z,95641.03
2018-02-17T13:52:07.292Z,95643.50
2018-02-17T13:54:35.328Z,95646.51
2018-02-17T13:57:03.389Z,95634.23
2018-02-17T13:59:31.357Z,95650.83
2018-02-17T14:01:59.357Z,95638.11
2018-02-17T14:04:27.347Z,95642.91
2018-02-17T14:06:55.346Z,95632.13
2018-02-17T14:09:23.264Z,95633.83
2018-02-17T14:11:51.185Z,95632.39
2018-02-17T14:14:19.722Z,95631.97
2018-02-17T14:16:47.672Z,95630.69
2018-02-17T14:19:15.649Z,95621.89
2018-02-17T14:21:43.629Z,95627.39
2018-02-17T14:24:11.591Z,95621.40
2018-02-17T14:26:39.565Z,95615.34
2018-02-17T14:29:07.616Z,95568.83
2018-02-17T14:31:35.653Z,95610.87
2018-02-17T14:34:03.641Z,95613.83
2018-02-17T14:36:31.554Z,95611.18
2018-02-17T14:38:59.540Z,95619.48
2018-02-17T14:41:27.519Z,95613.61
2018-02-17T14:43:55.425Z,95620.41
2018-02-17T14:46:23.435Z,95623.73
2018-02-17T14:48:51.481Z,95624.95
2018-02-17T14:51:19.604Z,95625.39
2018-02-17T14:53:47.651Z,95618.64
2018-02-17T14:56:15.626Z,95614.31
2018-02-17T14:58:43.671Z,95619.21
2018-02-17T15:01:11.640Z,95618.83
2018-02-17T15:03:39.618Z,95627.86
2018-02-17T15:06:07.536Z,95626.02
2018-02-17T15:08:35.525Z,95630.80
2018-02-17T15:11:03.513Z,95611.84
2018-02-17T15:13:31.383Z,95631.95
2018-02-17T15:15:59.904Z,95633.28
2018-02-17T15:18:27.862Z,95630.71
2018-02-17T15:20:55.864Z,95634.88
2018-02-17T15:23:23.875Z,95617.39
2018-02-17T15:25:51.869Z,95639.39
2018-02-17T15:28:19.798Z,95635.75
2018-02-17T15:30:47.780Z,95643.90
2018-02-17T15:33:15.691Z,95642.30
2018-02-17T15:35:43.678Z,95645.84
2018-02-17T15:38:11.539Z,95640.84
2018-02-17T15:40:39.542Z,95646.30
2018-02-17T15:43:07.470Z,95648.50
2018-02-17T15:45:35.507Z,95652.74
2018-02-17T15:48:03.435Z,95654.29
2018-02-17T15:50:31.333Z,95662.05
2018-02-17T15:52:59.358Z,95660.50
2018-02-17T15:55:27.353Z,95665.59
2018-02-17T15:57:55.404Z,95662.24
2018-02-17T16:00:23.434Z,95662.66
2018-02-17T16:02:51.403Z,95668.58
2018-02-17T16:05:19.450Z,95673.92
2018-02-17T16:07:47.396Z,95680.36
2018-02-17T16:10:15.414Z,95680.44
2018-02-17T16:12:43.421Z,95684.94
2018-02-17T16:15:11.484Z,95689.73
2018-02-17T16:17:39.542Z,95697.55
2018-02-17T16:20:07.538Z,95702.70
2018-02-17T16:22:35.601Z,95691.28
2018-02-17T16:25:03.530Z,95717.45
2018-02-17T16:27:31.507Z,95720.15
2018-02-17T16:29:59.484Z,95725.53
2018-02-17T16:32:27.506Z,95723.84
2018-02-17T16:34:55.476Z,95730.76
2018-02-17T16:37:23.414Z,95739.14
2018-02-17T16:39:51.421Z,95743.88
2018-02-17T16:42:19.410Z,95739.63
2018-02-17T16:44:47.377Z,95748.00
2018-02-17T16:47:15.406Z,95753.47
2018-02-17T16:49:43.339Z,95762.40
2018-02-17T16:52:11.326Z,95762.63
2018-02-17T16:54:39.256Z,95760.36
2018-02-17T16:57:07.197Z,95761.36
2018-02-17T16:59:35.138Z,95766.75
2018-02-17T17:02:03.043Z,95764.94
2018-02-17T17:04:31.021Z,95768.05
2018-02-17T17:06:58.999Z,95769.74
2018-02-17T17:09:26.973Z,95775.14
2018-02-17T17:11:54.989Z,95777.78
2018-02-17T17:14:22.956Z,95774.61
2018-02-17T17:16:50.907Z,95785.03
2018-02-17T17:19:19.116Z,95788.56
2018-02-17T17:21:47.128Z,95792.80
2018-02-17T17:24:15.123Z,95785.72
2018-02-17T17:26:43.209Z,95787.07
2018-02-17T17:29:11.180Z,95786.83
2018-02-17T17:31:39.214Z,95789.37
2018-02-17T17:34:07.134Z,95784.98
2018-02-17T17:36:35.094Z,95797.20
2018-02-17T17:39:03.109Z,95798.25
2018-02-17T17:41:31.074Z,95800.19
2018-02-17T17:44:00.314Z,95806.58
2018-02-17T17:46:28.332Z,95804.22
2018-02-17T17:48:56.257Z,95810.48
2018-02-17T17:51:24.264Z,95815.97
2018-02-17T17:53:52.278Z,95818.67
2018-02-17T17:56:20.274Z,95820.86
2018-02-17T17:58:48.226Z,95825.38
2018-02-17T18:01:16.202Z,95834.76
2018-02-17T18:03:44.163Z,95832.91
2018-02-17T18:06:12.160Z,95832.42
2018-02-17T18:08:40.191Z,95834.48
2018-02-17T18:11:08.197Z,95842.23
2018-02-17T18:13:36.413Z,95842.36
2018-02-17T18:16:04.427Z,95852.20
2018-02-17T18:18:32.459Z,95845.50
2018-02-17T18:21:00.869Z,95848.74
2018-02-17T18:23:29.002Z,95850.98
2018-02-17T18:25:58.182Z,95842.66
2018-02-17T18:28:26.195Z,95846.05
2018-02-17T18:30:54.228Z,95850.46
2018-02-17T18:33:22.266Z,95845.13
2018-02-17T18:35:50.275Z,95853.34
2018-02-17T18:38:18.214Z,95851.38
2018-02-17T18:40:46.245Z,95853.90
2018-02-17T18:43:14.224Z,95851.17
2018-02-17T18:45:42.173Z,95852.16
2018-02-17T18:48:10.161Z,95853.16
2018-02-17T18:50:38.179Z,95856.20
2018-02-17T18:53:06.127Z,95854.05
2018-02-17T18:55:34.109Z,95852.66
2018-02-17T18:58:02.100Z,95861.05
2018-02-17T19:00:30.055Z,95860.34
2018-02-17T19:02:58.054Z,95862.22
2018-02-17T19:05:26.107Z,95858.01
2018-02-17T19:07:55.016Z,95858.40
2018-02-17T19:10:23.088Z,95851.40
2018-02-17T19:12:51.183Z,95860.34
2018-02-17T19:15:19.461Z,95859.51
2018-02-17T19:17:47.507Z,95858.09
2018-02-17T19:20:15.437Z,95852.20
2018-02-17T19:22:43.573Z,95857.71
2018-02-17T19:25:11.535Z,95848.38
2018-02-17T19:27:39.550Z,95853.17
2018-02-17T19:30:07.578Z,95847.36
2018-02-17T19:32:36.237Z,95836.20
2018-02-17T19:35:04.269Z,95851.76
2018-02-17T19:37:32.307Z,95848.36
2018-02-17T19:40:00.775Z,95840.45
2018-02-17T19:42:28.801Z,95842.20
2018-02-17T19:44:56.925Z,95848.30
2018-02-17T19:47:24.988Z,95843.62
2018-02-17T19:49:54.511Z,95853.09
2018-02-17T19:52:22.571Z,95849.02
2018-02-17T19:54:50.467Z,95843.83
2018-02-17T19:57:18.660Z,95852.75
2018-02-17T19:59:46.643Z,95853.37
2018-02-17T20:02:14.632Z,95855.66
2018-02-17T20:04:42.612Z,95859.14
2018-02-17T20:07:10.677Z,95858.20
2018-02-17T20:09:38.732Z,95856.13
2018-02-17T20:12:06.742Z,95851.91
2018-02-17T20:14:34.753Z,95851.06
2018-02-17T20:17:02.961Z,95853.67
2018-02-17T20:19:30.919Z,95852.52
2018-02-17T20:21:58.928Z,95851.92
2018-02-17T20:24:27.277Z,95857.44
2018-02-17T20:26:56.358Z,95856.64
2018-02-17T20:29:24.517Z,95858.92
2018-02-17T20:31:52.512Z,95859.77
2018-02-17T20:34:20.547Z,95856.75
2018-02-17T20:36:48.660Z,95864.42
2018-02-17T20:39:16.675Z,95861.14
2018-02-17T20:41:44.595Z,95862.26
2018-02-17T20:44:12.574Z,95854.48
2018-02-17T20:46:40.506Z,95860.41
2018-02-17T20:49:08.498Z,95861.13
2018-02-17T20:51:37.439Z,95856.48
2018-02-17T20:54:05.439Z,95853.84
2018-02-17T20:56:33.377Z,95856.31
2018-02-17T20:59:01.285Z,95857.00
2018-02-17T21:01:29.329Z,95855.31
2018-02-17T21:03:57.339Z,95854.71
2018-02-17T21:06:25.330Z,95852.61
2018-02-17T21:08:53.284Z,95853.75
2018-02-17T21:11:21.336Z,95853.52
2018-02-17T21:13:49.258Z,95854.47
2018-02-17T21:16:17.239Z,95851.66
2018-02-17T21:18:45.423Z,95858.45
2018-02-17T21:21:13.441Z,95858.73
2018-02-17T21:23:41.446Z,95856.16
2018-02-17T21:26:10.162Z,95854.66
2018-02-17T21:28:38.245Z,95850.86
2018-02-17T21:31:06.256Z,95853.23
2018-02-17T21:33:34.181Z,95855.08
2018-02-17T21:36:02.109Z,95853.96
2018-02-17T21:38:30.126Z,95847.20
2018-02-17T21:40:58.767Z,95853.34
2018-02-17T21:43:26.801Z,95854.23
2018-02-17T21:45:54.733Z,95853.08
2018-02-17T21:48:22.668Z,95855.48
2018-02-17T21:50:50.648Z,95862.99
2018-02-17T21:53:18.610Z,95863.45
2018-02-17T21:55:46.571Z,95865.70
2018-02-17T21:58:14.562Z,95865.88
2018-02-17T22:00:42.537Z,95860.27
2018-02-17T22:03:10.497Z,95863.16
2018-02-17T22:05:38.447Z,95865.42
2018-02-17T22:08:06.366Z,95859.45
2018-02-17T22:10:34.341Z,95856.77
2018-02-17T22:13:02.263Z,95868.70
2018-02-17T22:15:30.159Z,95859.73
2018-02-17T22:17:58.095Z,95858.28
2018-02-17T22:20:26.251Z,95854.31
2018-02-17T22:22:54.284Z,95849.39
2018-02-17T22:25:22.229Z,95854.59
2018-02-17T22:27:50.609Z,95846.45
2018-02-17T22:30:18.490Z,95852.67
2018-02-17T22:32:46.422Z,95853.93
2018-02-17T22:35:14.395Z,95853.42
2018-02-17T22:37:42.385Z,95840.85
2018-02-17T22:40:10.390Z,95845.55
2018-02-17T22:42:38.358Z,95851.69
2018-02-17T22:45:06.320Z,95847.19
2018-02-17T22:47:34.372Z,95842.88
2018-02-17T22:50:02.297Z,95844.18
2018-02-17T22:52:30.260Z,95841.02
2018-02-17T22:54:58.218Z,95844.02
2018-02-17T22:57:26.146Z,95818.69
2018-02-17T22:59:54.131Z,95835.77
2018-02-17T23:02:22.072Z,95829.98
2018-02-17T23:04:49.993Z,95830.02
2018-02-17T23:07:17.966Z,95833.09
2018-02-17T23:09:45.975Z,95833.27
2018-02-17T23:12:13.889Z,95829.73
2018-02-17T23:14:41.922Z,95831.91
2018-02-17T23:17:09.907Z,95829.21
2018-02-17T23:19:38.034Z,95830.16
2018-02-17T23:22:06.212Z,95829.58
2018-02-17T23:24:34.222Z,95829.30
2018-02-17T23:27:02.218Z,95830.19
2018-02-17T23:29:30.435Z,95831.05
2018-02-17T23:31:58.611Z,95826.68
2018-02-17T23:34:26.592Z,95828.34
2018-02-17T23:36:54.545Z,95821.12
2018-02-17T23:39:22.489Z,95825.54
2018-02-17T23:41:50.438Z,95822.97
2018-02-17T23:44:18.442Z,95826.35
2018-02-17T23:46:46.418Z,95836.98
2018-02-17T23:49:14.378Z,95831.31
2018-02-17T23:51:42.327Z,95835.73
2018-02-17T23:54:10.302Z,95834.16
2018-02-17T23:56:38.243Z,95836.25
2018-02-17T23:59:06.181Z,95833.38
